createdAt,value
2019-03-05T00:01:35.951Z,84.30
2019-03-05T00:04:04.905Z,84.50
2019-03-05T00:13:58.909Z,85.00
2019-03-05T00:16:28.228Z,84.60
2019-03-05T00:23:57.728Z,84.70
2019-03-05T00:26:36.778Z,84.60
2019-03-05T00:29:20.440Z,84.80
2019-03-05T00:31:49.585Z,85.10
2019-03-05T00:34:43.239Z,85.20
2019-03-05T00:46:15.860Z,84.00
2019-03-05T00:51:54.602Z,83.60
2019-03-05T00:57:54.056Z,84.00
2019-03-05T01:00:37.046Z,85.10
2019-03-05T01:03:22.087Z,86.90
2019-03-05T01:06:21.741Z,88.90
2019-03-05T01:08:50.917Z,91.10
2019-03-05T01:13:49.747Z,93.50
2019-03-05T01:16:22.253Z,94.40
2019-03-05T01:18:51.161Z,95.30
2019-03-05T01:23:48.772Z,96.40
2019-03-05T01:26:17.987Z,97.00
2019-03-05T01:28:47.040Z,97.30
2019-03-05T01:34:09.993Z,97.90
2019-03-05T01:39:22.853Z,98.20
2019-03-05T01:41:51.872Z,98.40
2019-03-05T01:44:20.723Z,98.60
2019-03-05T01:46:49.760Z,98.80
2019-03-05T01:49:18.647Z,98.70
2019-03-05T01:51:47.498Z,98.70
2019-03-05T01:54:16.565Z,98.90
2019-03-05T01:56:45.517Z,99.20
2019-03-05T01:59:14.386Z,99.30
2019-03-05T02:01:43.368Z,99.30
2019-03-05T02:04:12.232Z,99.40
2019-03-05T02:06:41.176Z,99.50
2019-03-05T04:57:09.820Z,95.70
2019-03-05T04:59:38.592Z,95.80
2019-03-05T05:02:07.399Z,95.80
2019-03-05T05:04:36.181Z,95.70
2019-03-05T05:07:05.165Z,95.70
2019-03-05T05:09:33.945Z,95.70
2019-03-05T05:12:02.722Z,95.60
2019-03-05T05:14:31.472Z,95.60
2019-03-05T05:17:00.241Z,95.80
2019-03-05T05:19:29.001Z,95.80
2019-03-05T05:21:57.776Z,95.80
2019-03-05T05:24:26.860Z,95.70
2019-03-05T05:26:55.712Z,95.70
2019-03-05T05:29:24.547Z,95.70
2019-03-05T05:31:53.357Z,95.70
2019-03-05T05:34:22.129Z,95.70
2019-03-05T05:36:50.941Z,95.90
2019-03-05T05:42:06.337Z,95.70
2019-03-05T05:44:35.622Z,95.60
2019-03-05T05:47:04.389Z,95.40
2019-03-05T05:49:33.152Z,95.40
2019-03-05T05:52:01.916Z,95.80
2019-03-05T05:54:30.779Z,95.50
2019-03-05T05:56:59.558Z,95.40
2019-03-05T05:59:28.341Z,95.50
2019-03-05T06:01:57.122Z,95.80
2019-03-05T06:04:25.884Z,95.10
2019-03-05T06:06:54.691Z,95.00
2019-03-05T06:11:51.857Z,94.90
2019-03-05T06:14:20.659Z,94.80
2019-03-05T06:16:49.448Z,94.80
2019-03-05T06:19:18.210Z,94.70
2019-03-05T06:21:47.068Z,94.70
2019-03-05T06:24:15.825Z,94.40
2019-03-05T06:26:44.636Z,94.30
2019-03-05T06:31:41.794Z,94.30
2019-03-05T06:34:10.556Z,94.10
2019-03-05T06:36:55.054Z,94.10
2019-03-05T06:44:20.549Z,94.00
2019-03-05T06:46:49.417Z,94.10
2019-03-05T06:51:46.532Z,93.90
2019-03-05T06:54:15.344Z,94.10
2019-03-05T06:56:44.108Z,94.20
2019-03-05T06:59:12.948Z,94.00
2019-03-05T07:01:41.717Z,94.00
2019-03-05T07:04:10.570Z,94.30
2019-03-05T07:06:58.461Z,94.30
2019-03-05T07:12:56.440Z,94.80
2019-03-05T07:16:06.186Z,95.20
2019-03-05T07:19:15.321Z,95.50
2019-03-05T07:22:12.842Z,96.00
2019-03-05T07:24:46.274Z,96.00
2019-03-05T07:27:17.637Z,95.70
2019-03-05T07:29:46.401Z,96.20
2019-03-05T07:32:15.245Z,96.50
2019-03-05T07:34:45.777Z,95.70
2019-03-05T07:37:14.709Z,96.10
2019-03-05T07:39:43.483Z,96.00
2019-03-05T07:42:12.321Z,95.80
2019-03-05T07:44:41.092Z,95.80
2019-03-05T07:49:43.626Z,96.00
2019-03-05T07:54:36.992Z,95.60
2019-03-05T07:57:05.972Z,95.60
2019-03-05T07:59:34.741Z,95.80
2019-03-05T08:02:03.751Z,95.80
2019-03-05T08:04:32.534Z,95.80
2019-03-05T08:07:01.546Z,95.60
2019-03-05T08:12:22.269Z,95.40
2019-03-05T08:14:58.107Z,95.30
2019-03-05T08:17:27.005Z,95.30
2019-03-05T08:19:55.861Z,95.60
2019-03-05T08:22:25.178Z,95.00
2019-03-05T08:24:53.987Z,95.00
2019-03-05T08:27:22.750Z,94.90
2019-03-05T08:29:51.529Z,95.00
2019-03-05T08:32:20.293Z,95.30
2019-03-05T08:34:49.115Z,94.90
2019-03-05T08:37:17.908Z,94.90
2019-03-05T08:39:46.736Z,94.60
2019-03-05T08:47:14.161Z,94.30
2019-03-05T08:49:42.993Z,93.90
2019-03-05T08:52:11.761Z,94.20
2019-03-05T08:54:40.796Z,94.20
2019-03-05T08:57:09.642Z,93.80
2019-03-05T08:59:38.487Z,93.70
2019-03-05T09:02:07.413Z,94.00
2019-03-05T09:04:36.249Z,93.90
2019-03-05T09:07:05.100Z,93.40
2019-03-05T09:09:33.860Z,93.80
2019-03-05T09:14:31.021Z,93.50
2019-03-05T09:16:59.857Z,93.70
2019-03-05T09:19:28.695Z,93.50
2019-03-05T09:21:57.468Z,93.20
2019-03-05T09:26:54.878Z,93.30
2019-03-05T09:29:23.643Z,93.00
2019-03-05T09:31:52.412Z,93.00
2019-03-05T09:34:21.189Z,92.80
2019-03-05T09:41:48.648Z,92.50
2019-03-05T09:44:17.484Z,92.40
2019-03-05T09:46:46.273Z,92.50
2019-03-05T09:49:15.013Z,92.40
2019-03-05T09:51:43.789Z,92.30
2019-03-05T09:54:12.588Z,92.10
2019-03-05T09:56:41.369Z,91.80
2019-03-05T09:59:10.216Z,91.80
2019-03-05T10:01:39.052Z,91.40
2019-03-05T10:04:07.913Z,91.80
2019-03-05T10:06:36.749Z,92.00
2019-03-05T10:09:07.589Z,92.00
2019-03-05T10:11:36.414Z,91.70
2019-03-05T10:14:05.336Z,91.40
2019-03-05T10:19:02.522Z,91.40
2019-03-05T10:21:31.348Z,91.20
2019-03-05T10:24:09.951Z,91.50
2019-03-05T10:26:31.117Z,91.40
2019-03-05T10:29:00.036Z,91.30
2019-03-05T10:31:28.868Z,91.30
2019-03-05T10:33:57.665Z,91.30
2019-03-05T10:38:57.637Z,91.20
2019-03-05T10:41:25.701Z,91.50
2019-03-05T10:43:54.574Z,91.50
2019-03-05T10:46:23.336Z,91.10
2019-03-05T10:51:20.817Z,90.90
2019-03-05T10:53:49.741Z,90.50
2019-03-05T10:58:52.393Z,90.20
2019-03-05T11:01:21.225Z,90.10
2019-03-05T11:03:50.140Z,90.60
2019-03-05T11:06:19.118Z,90.10
2019-03-05T11:11:16.772Z,88.60
2019-03-05T11:21:10.795Z,89.00
2019-03-05T11:23:40.190Z,90.00
2019-03-05T11:26:08.961Z,89.50
2019-03-05T11:28:37.856Z,89.20
2019-03-05T11:31:07.466Z,89.10
2019-03-05T11:33:36.348Z,88.50
2019-03-05T11:36:06.057Z,87.60
2019-03-05T11:38:35.024Z,87.80
2019-03-05T11:46:03.237Z,84.90
2019-03-05T11:51:00.446Z,84.80
2019-03-05T11:53:29.393Z,85.50
2019-03-05T11:55:58.187Z,84.30
2019-03-05T11:58:26.952Z,84.50
2019-03-05T12:01:23.877Z,85.70
2019-03-05T12:03:52.717Z,85.30
2019-03-05T12:06:21.484Z,85.50
2019-03-05T12:08:50.273Z,85.70
2019-03-05T12:11:19.225Z,86.00
2019-03-05T12:16:16.861Z,85.30
2019-03-05T12:18:45.715Z,85.80
2019-03-05T12:21:14.644Z,84.00
2019-03-05T12:23:47.011Z,84.00
2019-03-05T12:28:42.684Z,83.20
2019-03-05T12:31:11.617Z,83.20
2019-03-05T12:33:40.517Z,82.40
2019-03-05T12:36:09.443Z,83.10
2019-03-05T12:41:06.659Z,83.20
2019-03-05T12:43:35.682Z,85.50
2019-03-05T12:46:04.633Z,87.10
2019-03-05T12:48:40.036Z,88.50
2019-03-05T12:51:04.273Z,89.00
2019-03-05T12:53:33.104Z,88.10
2019-03-05T12:56:01.965Z,86.60
2019-03-05T12:58:30.733Z,85.20
2019-03-05T13:00:59.589Z,82.20
2019-03-05T13:03:28.392Z,83.20
2019-03-05T13:05:57.407Z,83.00
2019-03-05T13:08:28.623Z,83.80
2019-03-05T13:10:56.741Z,82.90
2019-03-05T13:13:25.580Z,84.60
2019-03-05T13:15:56.555Z,86.70
2019-03-05T13:18:26.777Z,88.20
2019-03-05T13:20:55.763Z,90.10
2019-03-05T13:23:24.592Z,90.30
2019-03-05T13:28:21.755Z,90.10
2019-03-05T13:30:50.661Z,90.30
2019-03-05T13:33:19.425Z,90.10
2019-03-05T13:35:48.253Z,88.00
2019-03-05T13:38:17.117Z,89.20
2019-03-05T13:43:14.355Z,90.10
2019-03-05T13:45:49.226Z,89.80
2019-03-05T13:51:50.686Z,89.50
2019-03-05T13:54:48.561Z,89.10
2019-03-05T13:57:46.872Z,87.30
2019-03-05T14:05:54.078Z,82.10
2019-03-05T14:08:48.936Z,81.80
2019-03-05T14:11:17.784Z,76.50
2019-03-05T14:13:46.622Z,74.00
2019-03-05T14:16:17.562Z,74.30
2019-03-05T14:18:46.405Z,74.00
2019-03-05T14:21:15.257Z,73.60
2019-03-05T14:23:44.236Z,72.50
2019-03-05T14:28:41.713Z,72.80
2019-03-05T14:31:10.637Z,73.60
2019-03-05T14:33:39.582Z,71.50
2019-03-05T14:36:08.436Z,71.50
2019-03-05T14:38:37.356Z,72.20
2019-03-05T14:41:06.200Z,71.80
2019-03-05T14:43:35.311Z,72.20
2019-03-05T14:46:04.517Z,72.30
2019-03-05T14:48:33.418Z,72.00
2019-03-05T14:51:02.547Z,72.30
2019-03-05T14:53:31.377Z,73.00
2019-03-05T14:56:00.243Z,72.50
2019-03-05T14:58:29.013Z,72.20
2019-03-05T15:00:58.384Z,71.80
2019-03-05T15:03:27.193Z,71.40
2019-03-05T15:05:56.183Z,69.10
2019-03-05T15:08:25.337Z,68.30
2019-03-05T15:13:22.727Z,67.70
2019-03-05T15:15:51.563Z,67.50
2019-03-05T15:20:49.144Z,66.80
2019-03-05T15:23:17.919Z,66.30
2019-03-05T15:25:46.773Z,66.70
2019-03-05T15:30:44.151Z,67.30
2019-03-05T15:33:12.956Z,67.60
2019-03-05T15:43:07.063Z,69.50
2019-03-05T15:48:04.451Z,70.60
2019-03-05T15:50:33.303Z,71.10
2019-03-05T15:53:02.193Z,71.00
2019-03-05T15:55:31.008Z,70.60
2019-03-05T15:57:59.867Z,70.30
2019-03-05T16:00:30.051Z,70.30
2019-03-05T16:02:59.298Z,70.20
2019-03-05T16:05:28.458Z,70.90
2019-03-05T16:07:57.400Z,70.90
2019-03-05T16:12:54.500Z,72.40
2019-03-05T16:15:23.441Z,72.60
2019-03-05T16:17:54.317Z,73.00
2019-03-05T16:20:25.863Z,71.60
2019-03-05T16:22:55.017Z,71.70
2019-03-05T16:25:23.909Z,72.60
2019-03-05T16:27:52.800Z,73.40
2019-03-05T16:30:39.600Z,73.80
2019-03-05T16:33:32.597Z,75.30
2019-03-05T16:36:38.416Z,76.10
2019-03-05T16:39:13.137Z,77.20
2019-03-05T16:41:53.513Z,78.50
2019-03-05T16:44:28.853Z,79.50
2019-03-05T16:47:16.802Z,80.40
2019-03-05T16:52:56.709Z,81.20
2019-03-05T16:55:43.613Z,82.70
2019-03-05T16:58:19.688Z,82.20
2019-03-05T17:01:16.727Z,82.70
2019-03-05T17:03:57.905Z,83.00
2019-03-05T17:06:48.173Z,83.40
2019-03-05T17:09:36.265Z,83.80
2019-03-05T17:12:05.182Z,84.00
2019-03-05T17:17:02.492Z,85.10
2019-03-05T17:19:31.272Z,86.00
2019-03-05T17:22:00.424Z,86.90
2019-03-05T17:29:26.001Z,88.10
2019-03-05T17:54:12.488Z,91.60
2019-03-05T17:56:41.497Z,91.70
2019-03-05T18:01:39.475Z,92.20
2019-03-05T18:09:06.617Z,92.60
2019-03-05T18:23:57.417Z,93.50
2019-03-05T18:26:26.328Z,93.10
2019-03-05T18:28:55.092Z,92.60
2019-03-05T18:31:23.970Z,92.10
2019-03-05T18:33:52.844Z,92.00
2019-03-05T18:41:18.506Z,91.50
2019-03-05T18:46:15.672Z,91.40
2019-03-05T18:48:44.908Z,91.40
2019-03-05T18:51:13.672Z,91.30
2019-03-05T18:56:11.420Z,91.40
2019-03-05T18:58:40.276Z,91.40
2019-03-05T19:01:09.780Z,91.20
2019-03-05T19:03:38.649Z,91.00
2019-03-05T19:06:07.563Z,90.80
2019-03-05T19:13:33.435Z,90.30
2019-03-05T19:20:58.988Z,90.20
2019-03-05T19:23:27.800Z,90.10
2019-03-05T19:25:56.836Z,90.30
2019-03-05T19:28:25.944Z,90.40
2019-03-05T19:30:54.793Z,90.50
2019-03-05T19:33:23.559Z,90.50
2019-03-05T19:35:52.396Z,90.50
2019-03-05T19:38:21.420Z,90.60
2019-03-05T19:43:18.575Z,90.70
2019-03-05T19:45:47.361Z,90.90
2019-03-05T19:48:16.129Z,90.80
2019-03-05T19:50:45.274Z,90.90
2019-03-05T19:55:42.596Z,91.20
2019-03-05T19:58:12.341Z,91.40
2019-03-05T20:00:50.056Z,91.40
2019-03-05T20:03:18.808Z,91.40
2019-03-05T20:08:16.568Z,91.50
2019-03-05T20:10:45.394Z,91.50
2019-03-05T20:13:14.616Z,91.50
2019-03-05T20:15:43.466Z,91.60
2019-03-05T20:20:40.971Z,91.70
2019-03-05T20:23:09.876Z,91.70
2019-03-05T20:25:39.169Z,91.70
2019-03-05T20:28:08.420Z,91.70
2019-03-05T20:30:38.261Z,91.80
2019-03-05T20:33:07.573Z,91.80
2019-03-05T20:35:36.615Z,92.00
2019-03-05T20:47:59.196Z,92.40
2019-03-05T20:50:28.118Z,92.50
2019-03-05T20:52:57.020Z,92.50
2019-03-05T20:55:25.932Z,92.60
2019-03-05T21:05:25.253Z,92.40
2019-03-05T21:17:47.948Z,92.10
2019-03-05T21:37:37.212Z,92.10
2019-03-05T21:47:33.033Z,92.40
2019-03-05T22:02:24.813Z,92.40
2019-03-05T22:09:50.385Z,92.60
2019-03-05T22:12:19.148Z,92.60
2019-03-05T22:19:44.792Z,92.50
2019-03-05T22:24:41.880Z,92.40
2019-03-05T22:27:10.728Z,92.50
2019-03-05T22:29:39.496Z,92.40
2019-03-05T22:32:08.254Z,92.40
2019-03-05T22:34:37.048Z,92.50
2019-03-05T22:49:27.419Z,92.50
2019-03-05T22:51:56.264Z,92.50
2019-03-05T22:59:24.052Z,92.40
2019-03-05T23:01:52.969Z,92.50
2019-03-05T23:06:56.664Z,92.40
2019-03-05T23:11:54.893Z,92.30
2019-03-05T23:14:24.214Z,92.40
2019-03-05T23:16:53.549Z,92.50
2019-03-05T23:19:22.929Z,92.40
2019-03-05T23:24:20.462Z,92.60
2019-03-05T23:26:49.404Z,92.60
2019-03-05T23:29:19.947Z,92.70
2019-03-05T23:31:49.052Z,92.60
2019-03-05T23:34:18.602Z,92.60
2019-03-05T23:36:47.581Z,92.60
2019-03-05T23:41:45.668Z,92.80
2019-03-05T23:46:43.072Z,92.80
2019-03-05T23:49:12.006Z,92.80
2019-03-05T23:51:40.815Z,93.00
2019-03-05T23:54:09.741Z,93.00
2019-03-05T23:56:38.692Z,93.10
2019-03-05T23:59:07.475Z,93.10
